MSC Ludovica — HPAF — position and weather

sailwx.info

Track history (hours):
 
Tides and Currents Weather Stations Pressure Air Temp Water Temp Dewpoint Dewpoint Depression Visibility Wind Speed Wind Dir Waves Ship Positions

MSC Ludovica

Last reported at 2014-Dec-18 13:33 UTC. Time now 2014-Dec-18 14:27 UTC.
Position N 51°57' E 001°32'.

Length 301 m; draft 10.9 m.

Type: Ship. MMSI: 351248000.

Date/timePositionNaut miles runAvg speedWind from/ knotsBaromVisibWave heightAir tempDewpointWater temp
2014-Dec-18 13:33N 51°57' E 001°32'7 6.8
2014-Dec-18 12:33N 51°54' E 001°42'0 0.3
2014-Dec-18 11:32N 51°54' E 001°41'0 0.0
2014-Dec-18 10:32N 51°54' E 001°41'0 0.0
2014-Dec-18 09:32N 51°54' E 001°41'0 0.0
2014-Dec-18 08:32N 51°54' E 001°41'0 0.0
2014-Dec-18 07:32N 51°54' E 001°41'0 0.1
2014-Dec-18 06:32N 51°54' E 001°41'0 0.1
2014-Dec-18 05:32N 51°54' E 001°41'3 3.4
2014-Dec-18 04:33N 51°52' E 001°45'1515.0
2014-Dec-18 03:33N 51°37' E 001°49'1615.9
2014-Dec-18 02:33N 51°24' E 002°03'1312.9
2014-Dec-18 01:34N 51°11' E 001°57'1716.6
2014-Dec-18 00:34N 51°01' E 001°36'1716.5
2014-Dec-17 23:33N 50°47' E 001°22'  
2014-Dec-15 14:23N 38°60' W 009°53'1618.7
2014-Dec-15 13:33N 38°44' W 009°51'1918.8
2014-Dec-15 12:33N 38°26' W 009°44'1918.6
2014-Dec-15 11:34N 38°08' W 009°39'1918.5
2014-Dec-15 10:33N 37°49' W 009°36'1717.2
2014-Dec-15 09:33N 37°33' W 009°30'21116.1
2014-Dec-14 20:25N 35°57' W 005°35'1214.6
2014-Dec-14 19:34N 36°01' W 005°20'39520.5
2014-Dec-14 00:16N 37°06' E 002°44'99620.4
2014-Dec-11 23:23N 36°49' E 023°30'1923.1
2014-Dec-11 22:34N 37°07' E 023°38'2323.1
2014-Dec-11 21:33N 37°29' E 023°45'2019.6
2014-Dec-11 20:34N 37°48' E 023°37'10 9.7
2014-Dec-11 19:33N 37°57' E 023°35'0 0.0
2014-Dec-11 18:33N 37°57' E 023°35'0 0.0
2014-Dec-11 17:33N 37°57' E 023°35'0 0.0
2014-Dec-11 16:33N 37°57' E 023°35'0 0.0
2014-Dec-11 15:33N 37°57' E 023°35'0 0.0
2014-Dec-11 14:33N 37°57' E 023°35'0 0.0
2014-Dec-11 13:33N 37°57' E 023°35'0 0.0
2014-Dec-11 12:33N 37°57' E 023°35'0 0.0
2014-Dec-11 11:33N 37°57' E 023°35'0 0.0
2014-Dec-11 10:33N 37°57' E 023°35'0 0.0
2014-Dec-11 09:33N 37°57' E 023°35'0 0.0
2014-Dec-11 08:33N 37°57' E 023°35'0 0.0
2014-Dec-11 07:33N 37°57' E 023°35'0 0.0
2014-Dec-11 06:33N 37°57' E 023°35'0 0.0
2014-Dec-11 05:33N 37°57' E 023°35'0 0.0
2014-Dec-11 04:33N 37°57' E 023°35'0 0.0
2014-Dec-11 03:33N 37°57' E 023°35'0 0.0
2014-Dec-11 02:33N 37°57' E 023°35'0 0.0
2014-Dec-11 01:33N 37°57' E 023°35'0 0.0
2014-Dec-11 00:33N 37°57' E 023°35'0 0.0
2014-Dec-10 23:30N 37°57' E 023°35'0 0.0
2014-Dec-10 22:33N 37°57' E 023°35'0 0.0
2014-Dec-10 21:33N 37°57' E 023°35'2 1.9
2014-Dec-10 20:33N 37°56' E 023°37'4 4.0
2014-Dec-10 19:33N 37°52' E 023°38'1110.6
2014-Dec-10 18:33N 37°42' E 023°44'1313.3
2014-Dec-10 17:33N 37°36' E 023°59'1312.5
2014-Dec-10 16:30N 37°42' E 024°13'1414.4
2014-Dec-10 15:33N 37°51' E 024°27'2214.6
2014-Dec-10 14:04N 38°07' E 024°45'814.8
2014-Dec-10 13:33N 38°12' E 024°51'1614.8
2014-Dec-10 12:27N 38°24' E 025°06'  
Track history (hours):
 
Tides and Currents Weather Stations Pressure Air Temp Water Temp Dewpoint Dewpoint Depression Visibility Wind Speed Wind Dir Waves Ship Positions

MSC Ludovica

Last reported at 2014-Dec-18 13:33 UTC. Time now 2014-Dec-18 14:27 UTC.
Position N 51°57' E 001°32'.

Length 301 m; draft 10.9 m.

Type: Ship. MMSI: 351248000.

Date/timePositionNaut miles runAvg speedWind from/ knotsBaromVisibWave heightAir tempDewpointWater temp
2014-Dec-18 13:33N 51°57' E 001°32'7 6.8
2014-Dec-18 12:33N 51°54' E 001°42'0 0.3
2014-Dec-18 11:32N 51°54' E 001°41'0 0.0
2014-Dec-18 10:32N 51°54' E 001°41'0 0.0
2014-Dec-18 09:32N 51°54' E 001°41'0 0.0
2014-Dec-18 08:32N 51°54' E 001°41'0 0.0
2014-Dec-18 07:32N 51°54' E 001°41'0 0.1
2014-Dec-18 06:32N 51°54' E 001°41'0 0.1
2014-Dec-18 05:32N 51°54' E 001°41'3 3.4
2014-Dec-18 04:33N 51°52' E 001°45'1515.0
2014-Dec-18 03:33N 51°37' E 001°49'1615.9
2014-Dec-18 02:33N 51°24' E 002°03'1312.9
2014-Dec-18 01:34N 51°11' E 001°57'1716.6
2014-Dec-18 00:34N 51°01' E 001°36'1716.5
2014-Dec-17 23:33N 50°47' E 001°22'  
2014-Dec-15 14:23N 38°60' W 009°53'1618.7
2014-Dec-15 13:33N 38°44' W 009°51'1918.8
2014-Dec-15 12:33N 38°26' W 009°44'1918.6
2014-Dec-15 11:34N 38°08' W 009°39'1918.5
2014-Dec-15 10:33N 37°49' W 009°36'1717.2
2014-Dec-15 09:33N 37°33' W 009°30'21116.1
2014-Dec-14 20:25N 35°57' W 005°35'1214.6
2014-Dec-14 19:34N 36°01' W 005°20'39520.5
2014-Dec-14 00:16N 37°06' E 002°44'99620.4
2014-Dec-11 23:23N 36°49' E 023°30'1923.1
2014-Dec-11 22:34N 37°07' E 023°38'2323.1
2014-Dec-11 21:33N 37°29' E 023°45'2019.6
2014-Dec-11 20:34N 37°48' E 023°37'10 9.7
2014-Dec-11 19:33N 37°57' E 023°35'0 0.0
2014-Dec-11 18:33N 37°57' E 023°35'0 0.0
2014-Dec-11 17:33N 37°57' E 023°35'0 0.0
2014-Dec-11 16:33N 37°57' E 023°35'0 0.0
2014-Dec-11 15:33N 37°57' E 023°35'0 0.0
2014-Dec-11 14:33N 37°57' E 023°35'0 0.0
2014-Dec-11 13:33N 37°57' E 023°35'0 0.0
2014-Dec-11 12:33N 37°57' E 023°35'0 0.0
2014-Dec-11 11:33N 37°57' E 023°35'0 0.0
2014-Dec-11 10:33N 37°57' E 023°35'0 0.0
2014-Dec-11 09:33N 37°57' E 023°35'0 0.0
2014-Dec-11 08:33N 37°57' E 023°35'0 0.0
2014-Dec-11 07:33N 37°57' E 023°35'0 0.0
2014-Dec-11 06:33N 37°57' E 023°35'0 0.0
2014-Dec-11 05:33N 37°57' E 023°35'0 0.0
2014-Dec-11 04:33N 37°57' E 023°35'0 0.0
2014-Dec-11 03:33N 37°57' E 023°35'0 0.0
2014-Dec-11 02:33N 37°57' E 023°35'0 0.0
2014-Dec-11 01:33N 37°57' E 023°35'0 0.0
2014-Dec-11 00:33N 37°57' E 023°35'0 0.0
2014-Dec-10 23:30N 37°57' E 023°35'0 0.0
2014-Dec-10 22:33N 37°57' E 023°35'0 0.0
2014-Dec-10 21:33N 37°57' E 023°35'2 1.9
2014-Dec-10 20:33N 37°56' E 023°37'4 4.0
2014-Dec-10 19:33N 37°52' E 023°38'1110.6
2014-Dec-10 18:33N 37°42' E 023°44'1313.3
2014-Dec-10 17:33N 37°36' E 023°59'1312.5
2014-Dec-10 16:30N 37°42' E 024°13'1414.4
2014-Dec-10 15:33N 37°51' E 024°27'2214.6
2014-Dec-10 14:04N 38°07' E 024°45'814.8
2014-Dec-10 13:33N 38°12' E 024°51'1614.8
2014-Dec-10 12:27N 38°24' E 025°06'  

Dump ship's entire track history